Date,TemperatureHighF,TemperatureAvgF,TemperatureLowF,DewpointHighF,DewpointAvgF,DewpointLowF,HumidityHigh,HumidityAvg,HumidityLow,PressureMaxIn,PressureMinIn,WindSpeedMaxMPH,WindSpeedAvgMPH,GustSpeedMaxMPH,PrecipitationSumIn
2013-1-1,42,39,35,29,27,25,72,61,53,0.00,40.00,11,5,21,0.00
2013-1-2,38,32,25,25,16,9,67,54,36,0.00,40.00,8,6,14,0.00
2013-1-3,41,29,18,18,15,13,84,58,37,0.00,40.00,10,4,19,0.00
2013-1-4,41,35,33,21,19,18,56,51,43,0.00,40.00,15,10,29,0.00
2013-1-5,45,37,32,25,20,17,71,51,35,0.00,40.00,15,6,26,0.00
2013-1-6,45,38,29,28,26,23,78,61,46,0.00,40.00,8,4,14,0.00
2013-1-7,45,38,25,29,24,21,86,59,45,0.00,40.00,12,5,22,0.00
2013-1-8,51,32,21,33,26,19,96,78,49,0.00,40.00,4,2,6,0.00
2013-1-9,52,36,24,45,30,22,97,81,43,0.00,40.00,13,3,21,0.00
2013-1-10,52,46,39,29,28,25,64,49,40,0.00,40.00,13,4,21,0.00
2013-1-11,47,41,35,43,34,26,100,80,53,0.00,40.00,9,4,13,0.09
2013-1-12,60,46,40,49,44,40,100,93,68,0.00,40.00,4,2,7,0.01
2013-1-13,58,49,42,54,48,42,100,96,80,0.00,40.00,4,3,8,0.00
2013-1-14,54,49,39,54,42,31,100,79,55,0.00,40.00,9,5,17,0.15
2013-1-15,40,37,34,38,34,30,100,89,75,0.00,40.00,6,4,10,0.58
2013-1-16,39,35,33,39,35,33,100,100,100,0.00,40.00,8,3,11,1.12
2013-1-17,43,39,35,39,28,21,100,63,45,0.00,40.00,7,4,19,0.02
2013-1-18,38,32,26,27,14,6,69,47,27,0.00,40.00,12,6,24,0.00
2013-1-19,58,41,26,27,22,14,69,49,22,0.00,40.00,14,8,23,0.00
2013-1-20,54,44,31,29,18,8,63,38,19,0.00,40.00,16,8,30,0.00
2013-1-21,44,31,26,16,14,8,62,48,32,0.00,40.00,14,6,28,0.00
2013-1-22,26,18,13,9,-5,-9,48,36,26,0.00,40.00,13,9,30,0.00
2013-1-23,23,18,11,7,-2,-5,56,41,28,0.00,40.00,9,5,20,0.00
2013-1-24,27,20,15,15,6,-6,93,58,32,0.00,40.00,12,6,27,0.04
2013-1-25,22,17,12,18,7,-6,96,67,35,0.00,40.00,9,3,19,0.01
2013-1-26,38,25,16,27,20,15,97,84,63,0.00,40.00,5,2,12,0.07
2013-1-27,36,28,20,19,15,11,74,59,43,0.00,40.00,5,3,11,0.04
2013-1-28,42,35,28,41,32,19,100,92,68,0.00,40.00,7,3,11,0.18
2013-1-29,69,55,40,54,49,40,100,84,55,0.00,40.00,7,4,12,0.03
2013-1-30,70,53,41,61,52,41,100,97,73,0.00,40.00,19,5,31,1.31
2013-1-31,55,36,28,55,19,8,100,51,40,0.00,40.00,19,12,41,1.29